sensor_id;sensor_type;location;lat;lon;timestamp;P1;durP1;ratioP1;P2;durP2;ratioP2
30533;SDS011;17318;52.390;9.754;2023-03-13T00:01:23;27.58;;;3.55;;
30533;SDS011;17318;52.390;9.754;2023-03-13T00:03:53;26.67;;;4.55;;
30533;SDS011;17318;52.390;9.754;2023-03-13T00:06:19;34.92;;;4.70;;
30533;SDS011;17318;52.390;9.754;2023-03-13T00:08:47;31.13;;;4.50;;
30533;SDS011;17318;52.390;9.754;2023-03-13T00:11:13;19.33;;;3.47;;
30533;SDS011;17318;52.390;9.754;2023-03-13T00:13:40;26.30;;;4.03;;
30533;SDS011;17318;52.390;9.754;2023-03-13T00:16:07;25.20;;;3.92;;
30533;SDS011;17318;52.390;9.754;2023-03-13T00:18:38;28.40;;;3.78;;
30533;SDS011;17318;52.390;9.754;2023-03-13T00:21:04;30.42;;;4.05;;
30533;SDS011;17318;52.390;9.754;2023-03-13T00:25:59;24.58;;;3.92;;
30533;SDS011;17318;52.390;9.754;2023-03-13T00:28:27;30.75;;;4.53;;
30533;SDS011;17318;52.390;9.754;2023-03-13T00:31:03;27.48;;;4.07;;
30533;SDS011;17318;52.390;9.754;2023-03-13T00:33:31;30.52;;;4.55;;
30533;SDS011;17318;52.390;9.754;2023-03-13T00:36:00;27.42;;;3.67;;
30533;SDS011;17318;52.390;9.754;2023-03-13T00:38:27;16.00;;;3.40;;
30533;SDS011;17318;52.390;9.754;2023-03-13T00:41:06;21.08;;;3.72;;
30533;SDS011;17318;52.390;9.754;2023-03-13T00:43:36;25.60;;;4.80;;
30533;SDS011;17318;52.390;9.754;2023-03-13T00:46:02;27.65;;;4.68;;
30533;SDS011;17318;52.390;9.754;2023-03-13T00:48:28;24.75;;;4.28;;
30533;SDS011;17318;52.390;9.754;2023-03-13T00:50:54;23.15;;;3.72;;
30533;SDS011;17318;52.390;9.754;2023-03-13T00:53:20;25.38;;;3.92;;
30533;SDS011;17318;52.390;9.754;2023-03-13T00:55:53;25.73;;;3.92;;
30533;SDS011;17318;52.390;9.754;2023-03-13T00:58:20;25.70;;;3.85;;
30533;SDS011;17318;52.390;9.754;2023-03-13T01:00:46;26.38;;;3.88;;
30533;SDS011;17318;52.390;9.754;2023-03-13T01:03:11;23.77;;;4.68;;
30533;SDS011;17318;52.390;9.754;2023-03-13T01:05:37;20.80;;;3.40;;
30533;SDS011;17318;52.390;9.754;2023-03-13T01:08:03;28.27;;;4.10;;
30533;SDS011;17318;52.390;9.754;2023-03-13T01:10:28;26.30;;;3.65;;
30533;SDS011;17318;52.390;9.754;2023-03-13T01:12:54;28.17;;;4.07;;
30533;SDS011;17318;52.390;9.754;2023-03-13T01:15:20;27.02;;;4.03;;
30533;SDS011;17318;52.390;9.754;2023-03-13T01:17:45;20.65;;;3.42;;
30533;SDS011;17318;52.390;9.754;2023-03-13T01:20:11;20.92;;;3.30;;
30533;SDS011;17318;52.390;9.754;2023-03-13T01:22:37;17.92;;;3.53;;
30533;SDS011;17318;52.390;9.754;2023-03-13T01:25:03;22.65;;;3.63;;
30533;SDS011;17318;52.390;9.754;2023-03-13T01:27:30;26.98;;;4.70;;
30533;SDS011;17318;52.390;9.754;2023-03-13T01:29:59;23.63;;;3.67;;
30533;SDS011;17318;52.390;9.754;2023-03-13T01:32:24;18.42;;;3.15;;
30533;SDS011;17318;52.390;9.754;2023-03-13T01:34:50;28.80;;;3.95;;
30533;SDS011;17318;52.390;9.754;2023-03-13T01:37:17;26.67;;;4.32;;
30533;SDS011;17318;52.390;9.754;2023-03-13T01:39:43;28.55;;;4.00;;
30533;SDS011;17318;52.390;9.754;2023-03-13T01:42:08;24.48;;;4.18;;
30533;SDS011;17318;52.390;9.754;2023-03-13T01:44:53;27.35;;;3.55;;
30533;SDS011;17318;52.390;9.754;2023-03-13T01:47:21;29.17;;;4.05;;
30533;SDS011;17318;52.390;9.754;2023-03-13T01:49:47;19.13;;;3.22;;
30533;SDS011;17318;52.390;9.754;2023-03-13T01:52:25;26.58;;;3.85;;
30533;SDS011;17318;52.390;9.754;2023-03-13T01:54:59;20.08;;;3.40;;
30533;SDS011;17318;52.390;9.754;2023-03-13T01:57:34;19.80;;;3.70;;
30533;SDS011;17318;52.390;9.754;2023-03-13T02:00:11;26.40;;;3.85;;
30533;SDS011;17318;52.390;9.754;2023-03-13T02:02:44;22.83;;;3.55;;
30533;SDS011;17318;52.390;9.754;2023-03-13T02:05:13;22.95;;;3.63;;
30533;SDS011;17318;52.390;9.754;2023-03-13T02:07:52;30.10;;;4.38;;
30533;SDS011;17318;52.390;9.754;2023-03-13T02:10:21;24.25;;;2.92;;
30533;SDS011;17318;52.390;9.754;2023-03-13T02:12:47;24.52;;;3.92;;
30533;SDS011;17318;52.390;9.754;2023-03-13T02:15:14;20.23;;;3.33;;
30533;SDS011;17318;52.390;9.754;2023-03-13T02:17:47;30.98;;;4.93;;
30533;SDS011;17318;52.390;9.754;2023-03-13T02:20:15;27.63;;;3.58;;
30533;SDS011;17318;52.390;9.754;2023-03-13T02:25:37;18.88;;;3.10;;
30533;SDS011;17318;52.390;9.754;2023-03-13T02:28:10;18.30;;;3.42;;
30533;SDS011;17318;52.390;9.754;2023-03-13T02:30:48;19.92;;;3.58;;
30533;SDS011;17318;52.390;9.754;2023-03-13T02:33:18;69.97;;;29.17;;
30533;SDS011;17318;52.390;9.754;2023-03-13T02:35:45;33.80;;;8.15;;
30533;SDS011;17318;52.390;9.754;2023-03-13T02:38:14;19.05;;;3.47;;
30533;SDS011;17318;52.390;9.754;2023-03-13T02:40:44;25.15;;;3.67;;
30533;SDS011;17318;52.390;9.754;2023-03-13T02:43:15;19.98;;;3.42;;
30533;SDS011;17318;52.390;9.754;2023-03-13T02:46:08;20.20;;;2.88;;
30533;SDS011;17318;52.390;9.754;2023-03-13T02:48:38;23.10;;;4.15;;
30533;SDS011;17318;52.390;9.754;2023-03-13T02:51:05;17.23;;;3.00;;
30533;SDS011;17318;52.390;9.754;2023-03-13T02:53:40;24.58;;;3.80;;
30533;SDS011;17318;52.390;9.754;2023-03-13T02:56:07;18.42;;;3.55;;
30533;SDS011;17318;52.390;9.754;2023-03-13T02:58:42;20.27;;;4.25;;
30533;SDS011;17318;52.390;9.754;2023-03-13T03:01:08;19.58;;;3.55;;
30533;SDS011;17318;52.390;9.754;2023-03-13T03:03:34;26.83;;;4.25;;
30533;SDS011;17318;52.390;9.754;2023-03-13T03:06:00;14.30;;;2.83;;
30533;SDS011;17318;52.390;9.754;2023-03-13T03:08:27;21.85;;;2.90;;
30533;SDS011;17318;52.390;9.754;2023-03-13T03:10:52;26.65;;;3.88;;
30533;SDS011;17318;52.390;9.754;2023-03-13T03:13:18;26.05;;;4.15;;
30533;SDS011;17318;52.390;9.754;2023-03-13T03:15:43;16.25;;;2.83;;
30533;SDS011;17318;52.390;9.754;2023-03-13T03:18:09;18.42;;;2.97;;
30533;SDS011;17318;52.390;9.754;2023-03-13T03:20:35;19.65;;;3.72;;
30533;SDS011;17318;52.390;9.754;2023-03-13T03:23:00;21.33;;;3.63;;
30533;SDS011;17318;52.390;9.754;2023-03-13T03:25:26;24.35;;;3.40;;
30533;SDS011;17318;52.390;9.754;2023-03-13T03:27:51;15.40;;;3.20;;
30533;SDS011;17318;52.390;9.754;2023-03-13T03:30:17;14.05;;;3.20;;
30533;SDS011;17318;52.390;9.754;2023-03-13T03:32:43;21.67;;;3.05;;
30533;SDS011;17318;52.390;9.754;2023-03-13T03:35:09;20.35;;;3.72;;
30533;SDS011;17318;52.390;9.754;2023-03-13T03:37:34;21.17;;;3.55;;
30533;SDS011;17318;52.390;9.754;2023-03-13T03:40:00;29.25;;;3.75;;
30533;SDS011;17318;52.390;9.754;2023-03-13T03:42:25;20.05;;;3.83;;
30533;SDS011;17318;52.390;9.754;2023-03-13T03:44:51;21.45;;;2.85;;
30533;SDS011;17318;52.390;9.754;2023-03-13T03:47:17;16.85;;;2.83;;
30533;SDS011;17318;52.390;9.754;2023-03-13T03:49:42;19.55;;;3.00;;
30533;SDS011;17318;52.390;9.754;2023-03-13T03:52:08;16.13;;;3.50;;
30533;SDS011;17318;52.390;9.754;2023-03-13T03:54:34;16.52;;;2.47;;
30533;SDS011;17318;52.390;9.754;2023-03-13T03:56:59;36.88;;;3.92;;
30533;SDS011;17318;52.390;9.754;2023-03-13T03:59:25;20.08;;;3.13;;
30533;SDS011;17318;52.390;9.754;2023-03-13T04:01:51;15.07;;;2.92;;
30533;SDS011;17318;52.390;9.754;2023-03-13T04:04:16;17.45;;;2.65;;
30533;SDS011;17318;52.390;9.754;2023-03-13T04:06:42;22.52;;;3.60;;
30533;SDS011;17318;52.390;9.754;2023-03-13T04:09:07;14.63;;;3.20;;
30533;SDS011;17318;52.390;9.754;2023-03-13T04:11:33;25.05;;;3.00;;
30533;SDS011;17318;52.390;9.754;2023-03-13T04:13:59;21.75;;;2.95;;
30533;SDS011;17318;52.390;9.754;2023-03-13T04:16:24;23.73;;;3.17;;
30533;SDS011;17318;52.390;9.754;2023-03-13T04:18:50;22.70;;;2.85;;
30533;SDS011;17318;52.390;9.754;2023-03-13T04:21:15;27.70;;;3.63;;
30533;SDS011;17318;52.390;9.754;2023-03-13T04:23:41;17.60;;;3.25;;
30533;SDS011;17318;52.390;9.754;2023-03-13T04:26:07;17.52;;;3.17;;
30533;SDS011;17318;52.390;9.754;2023-03-13T04:28:32;14.75;;;2.47;;
30533;SDS011;17318;52.390;9.754;2023-03-13T04:30:58;20.50;;;3.20;;
30533;SDS011;17318;52.390;9.754;2023-03-13T04:33:25;24.67;;;3.60;;
30533;SDS011;17318;52.390;9.754;2023-03-13T04:35:51;23.15;;;3.53;;
30533;SDS011;17318;52.390;9.754;2023-03-13T04:38:16;13.80;;;2.58;;
30533;SDS011;17318;52.390;9.754;2023-03-13T04:40:42;24.15;;;3.60;;
30533;SDS011;17318;52.390;9.754;2023-03-13T04:43:08;15.85;;;3.05;;
30533;SDS011;17318;52.390;9.754;2023-03-13T04:45:33;15.05;;;2.75;;
30533;SDS011;17318;52.390;9.754;2023-03-13T04:47:59;24.17;;;3.05;;
30533;SDS011;17318;52.390;9.754;2023-03-13T04:50:25;18.55;;;3.50;;
30533;SDS011;17318;52.390;9.754;2023-03-13T04:52:50;18.85;;;3.03;;
30533;SDS011;17318;52.390;9.754;2023-03-13T04:55:16;21.42;;;3.17;;
30533;SDS011;17318;52.390;9.754;2023-03-13T04:57:41;23.27;;;3.85;;
30533;SDS011;17318;52.390;9.754;2023-03-13T05:00:07;19.42;;;3.13;;
30533;SDS011;17318;52.390;9.754;2023-03-13T05:02:34;14.90;;;2.60;;
30533;SDS011;17318;52.390;9.754;2023-03-13T05:05:00;24.70;;;3.63;;
30533;SDS011;17318;52.390;9.754;2023-03-13T05:07:25;19.27;;;3.22;;
30533;SDS011;17318;52.390;9.754;2023-03-13T05:09:51;25.30;;;3.08;;
30533;SDS011;17318;52.390;9.754;2023-03-13T05:12:17;22.17;;;3.45;;
30533;SDS011;17318;52.390;9.754;2023-03-13T05:14:42;14.48;;;2.70;;
30533;SDS011;17318;52.390;9.754;2023-03-13T05:17:08;16.85;;;2.78;;
30533;SDS011;17318;52.390;9.754;2023-03-13T05:19:35;22.55;;;4.13;;
30533;SDS011;17318;52.390;9.754;2023-03-13T05:22:00;17.20;;;3.08;;
30533;SDS011;17318;52.390;9.754;2023-03-13T05:24:26;25.98;;;6.15;;
30533;SDS011;17318;52.390;9.754;2023-03-13T05:26:52;20.45;;;3.70;;
30533;SDS011;17318;52.390;9.754;2023-03-13T05:29:17;15.95;;;2.92;;
30533;SDS011;17318;52.390;9.754;2023-03-13T05:31:43;14.48;;;2.85;;
30533;SDS011;17318;52.390;9.754;2023-03-13T05:34:09;19.52;;;2.78;;
30533;SDS011;17318;52.390;9.754;2023-03-13T05:36:34;18.90;;;2.92;;
30533;SDS011;17318;52.390;9.754;2023-03-13T05:39:00;16.30;;;2.70;;
30533;SDS011;17318;52.390;9.754;2023-03-13T05:41:26;14.85;;;2.53;;
30533;SDS011;17318;52.390;9.754;2023-03-13T05:43:51;13.90;;;2.85;;
30533;SDS011;17318;52.390;9.754;2023-03-13T05:46:17;9.35;;;2.55;;
30533;SDS011;17318;52.390;9.754;2023-03-13T05:48:43;11.57;;;2.47;;
30533;SDS011;17318;52.390;9.754;2023-03-13T05:51:09;11.40;;;2.20;;
30533;SDS011;17318;52.390;9.754;2023-03-13T05:53:35;16.17;;;2.58;;
30533;SDS011;17318;52.390;9.754;2023-03-13T05:56:00;10.63;;;2.28;;
30533;SDS011;17318;52.390;9.754;2023-03-13T05:58:26;14.65;;;2.95;;
30533;SDS011;17318;52.390;9.754;2023-03-13T06:00:52;7.90;;;2.05;;
30533;SDS011;17318;52.390;9.754;2023-03-13T06:03:17;13.93;;;2.72;;
30533;SDS011;17318;52.390;9.754;2023-03-13T06:05:43;11.05;;;2.88;;
30533;SDS011;17318;52.390;9.754;2023-03-13T06:08:09;11.10;;;2.10;;
30533;SDS011;17318;52.390;9.754;2023-03-13T06:10:34;10.13;;;1.85;;
30533;SDS011;17318;52.390;9.754;2023-03-13T06:13:00;7.72;;;1.77;;
30533;SDS011;17318;52.390;9.754;2023-03-13T06:15:26;9.15;;;1.83;;
30533;SDS011;17318;52.390;9.754;2023-03-13T06:17:51;10.70;;;2.10;;
30533;SDS011;17318;52.390;9.754;2023-03-13T06:20:17;12.00;;;2.35;;
30533;SDS011;17318;52.390;9.754;2023-03-13T06:22:43;14.27;;;1.98;;
30533;SDS011;17318;52.390;9.754;2023-03-13T06:25:08;11.18;;;2.05;;
30533;SDS011;17318;52.390;9.754;2023-03-13T06:27:34;6.35;;;1.65;;
30533;SDS011;17318;52.390;9.754;2023-03-13T06:30:00;11.95;;;1.70;;
30533;SDS011;17318;52.390;9.754;2023-03-13T06:32:26;8.70;;;2.08;;
30533;SDS011;17318;52.390;9.754;2023-03-13T06:34:52;5.88;;;1.33;;
30533;SDS011;17318;52.390;9.754;2023-03-13T06:37:18;7.75;;;1.67;;
30533;SDS011;17318;52.390;9.754;2023-03-13T06:39:43;7.30;;;1.50;;
30533;SDS011;17318;52.390;9.754;2023-03-13T06:42:09;5.38;;;1.50;;
30533;SDS011;17318;52.390;9.754;2023-03-13T06:44:35;9.63;;;1.55;;
30533;SDS011;17318;52.390;9.754;2023-03-13T06:47:01;6.72;;;1.50;;
30533;SDS011;17318;52.390;9.754;2023-03-13T06:49:26;4.50;;;1.35;;
30533;SDS011;17318;52.390;9.754;2023-03-13T06:51:52;5.65;;;1.23;;
30533;SDS011;17318;52.390;9.754;2023-03-13T06:54:17;4.65;;;1.45;;
30533;SDS011;17318;52.390;9.754;2023-03-13T06:56:43;4.78;;;1.20;;
30533;SDS011;17318;52.390;9.754;2023-03-13T06:59:09;8.30;;;1.30;;
30533;SDS011;17318;52.390;9.754;2023-03-13T07:01:34;7.55;;;1.35;;
30533;SDS011;17318;52.390;9.754;2023-03-13T07:04:00;4.78;;;1.25;;
30533;SDS011;17318;52.390;9.754;2023-03-13T07:06:26;4.03;;;1.45;;
30533;SDS011;17318;52.390;9.754;2023-03-13T07:08:52;6.05;;;1.50;;
30533;SDS011;17318;52.390;9.754;2023-03-13T07:11:17;10.30;;;1.40;;
30533;SDS011;17318;52.390;9.754;2023-03-13T07:13:43;7.10;;;2.03;;
30533;SDS011;17318;52.390;9.754;2023-03-13T07:16:10;4.07;;;1.40;;
30533;SDS011;17318;52.390;9.754;2023-03-13T07:18:37;8.68;;;1.65;;
30533;SDS011;17318;52.390;9.754;2023-03-13T07:21:06;7.32;;;1.42;;
30533;SDS011;17318;52.390;9.754;2023-03-13T07:23:33;3.30;;;1.35;;
30533;SDS011;17318;52.390;9.754;2023-03-13T07:26:00;4.15;;;1.58;;
30533;SDS011;17318;52.390;9.754;2023-03-13T07:28:29;4.20;;;1.27;;
30533;SDS011;17318;52.390;9.754;2023-03-13T07:31:02;7.78;;;2.05;;
30533;SDS011;17318;52.390;9.754;2023-03-13T07:33:28;5.90;;;1.88;;
30533;SDS011;17318;52.390;9.754;2023-03-13T07:35:54;5.57;;;2.10;;
30533;SDS011;17318;52.390;9.754;2023-03-13T07:38:20;4.82;;;1.20;;
30533;SDS011;17318;52.390;9.754;2023-03-13T07:40:49;7.72;;;1.40;;
30533;SDS011;17318;52.390;9.754;2023-03-13T07:43:17;7.20;;;1.42;;
30533;SDS011;17318;52.390;9.754;2023-03-13T07:45:49;5.47;;;1.55;;
30533;SDS011;17318;52.390;9.754;2023-03-13T07:48:16;3.90;;;1.20;;
30533;SDS011;17318;52.390;9.754;2023-03-13T07:50:42;7.82;;;1.73;;
30533;SDS011;17318;52.390;9.754;2023-03-13T07:53:08;4.55;;;1.73;;
30533;SDS011;17318;52.390;9.754;2023-03-13T07:55:33;5.15;;;1.45;;
30533;SDS011;17318;52.390;9.754;2023-03-13T07:57:59;4.07;;;1.40;;
30533;SDS011;17318;52.390;9.754;2023-03-13T08:00:25;10.02;;;3.47;;
30533;SDS011;17318;52.390;9.754;2023-03-13T08:02:51;4.43;;;1.65;;
30533;SDS011;17318;52.390;9.754;2023-03-13T08:05:16;3.17;;;1.45;;
30533;SDS011;17318;52.390;9.754;2023-03-13T08:07:43;6.72;;;2.00;;
30533;SDS011;17318;52.390;9.754;2023-03-13T08:10:09;2.22;;;1.02;;
30533;SDS011;17318;52.390;9.754;2023-03-13T08:12:35;7.60;;;1.65;;
30533;SDS011;17318;52.390;9.754;2023-03-13T08:15:00;1.70;;;1.23;;
30533;SDS011;17318;52.390;9.754;2023-03-13T08:17:29;2.63;;;1.52;;
30533;SDS011;17318;52.390;9.754;2023-03-13T08:19:55;2.50;;;1.38;;
30533;SDS011;17318;52.390;9.754;2023-03-13T08:22:20;3.65;;;1.38;;
30533;SDS011;17318;52.390;9.754;2023-03-13T08:24:46;4.13;;;1.52;;
30533;SDS011;17318;52.390;9.754;2023-03-13T08:27:12;22.27;;;10.65;;
30533;SDS011;17318;52.390;9.754;2023-03-13T08:29:37;13.27;;;6.63;;
30533;SDS011;17318;52.390;9.754;2023-03-13T08:32:03;6.93;;;2.03;;
30533;SDS011;17318;52.390;9.754;2023-03-13T08:34:29;7.28;;;1.45;;
30533;SDS011;17318;52.390;9.754;2023-03-13T08:36:55;3.03;;;1.70;;
30533;SDS011;17318;52.390;9.754;2023-03-13T08:39:22;5.57;;;2.30;;
30533;SDS011;17318;52.390;9.754;2023-03-13T08:41:48;4.97;;;1.83;;
30533;SDS011;17318;52.390;9.754;2023-03-13T08:44:15;4.60;;;1.90;;
30533;SDS011;17318;52.390;9.754;2023-03-13T08:46:42;5.50;;;2.00;;
30533;SDS011;17318;52.390;9.754;2023-03-13T08:49:09;11.05;;;1.98;;
30533;SDS011;17318;52.390;9.754;2023-03-13T08:51:36;5.93;;;2.10;;
30533;SDS011;17318;52.390;9.754;2023-03-13T08:54:02;3.88;;;1.90;;
30533;SDS011;17318;52.390;9.754;2023-03-13T08:56:29;4.00;;;1.58;;
30533;SDS011;17318;52.390;9.754;2023-03-13T08:58:56;6.97;;;1.75;;
30533;SDS011;17318;52.390;9.754;2023-03-13T09:01:25;2.85;;;1.58;;
30533;SDS011;17318;52.390;9.754;2023-03-13T09:03:53;3.03;;;1.45;;
30533;SDS011;17318;52.390;9.754;2023-03-13T09:06:19;6.20;;;1.60;;
30533;SDS011;17318;52.390;9.754;2023-03-13T09:08:45;6.38;;;1.50;;
30533;SDS011;17318;52.390;9.754;2023-03-13T09:11:12;4.85;;;1.95;;
30533;SDS011;17318;52.390;9.754;2023-03-13T09:13:41;9.85;;;2.03;;
30533;SDS011;17318;52.390;9.754;2023-03-13T09:18:35;4.43;;;1.33;;
30533;SDS011;17318;52.390;9.754;2023-03-13T09:21:01;2.90;;;1.30;;
30533;SDS011;17318;52.390;9.754;2023-03-13T09:23:28;2.67;;;1.50;;
30533;SDS011;17318;52.390;9.754;2023-03-13T09:25:54;2.95;;;1.63;;
30533;SDS011;17318;52.390;9.754;2023-03-13T09:28:21;2.05;;;1.45;;
30533;SDS011;17318;52.390;9.754;2023-03-13T09:30:48;3.08;;;1.60;;
30533;SDS011;17318;52.390;9.754;2023-03-13T09:33:14;3.50;;;1.50;;
30533;SDS011;17318;52.390;9.754;2023-03-13T09:35:40;5.35;;;1.45;;
30533;SDS011;17318;52.390;9.754;2023-03-13T09:38:06;2.45;;;1.35;;
30533;SDS011;17318;52.390;9.754;2023-03-13T09:40:40;7.40;;;1.63;;
30533;SDS011;17318;52.390;9.754;2023-03-13T09:43:30;1.90;;;1.10;;
30533;SDS011;17318;52.390;9.754;2023-03-13T09:46:14;2.17;;;1.25;;
30533;SDS011;17318;52.390;9.754;2023-03-13T09:49:02;2.92;;;1.30;;
30533;SDS011;17318;52.390;9.754;2023-03-13T09:51:36;3.08;;;1.10;;
30533;SDS011;17318;52.390;9.754;2023-03-13T09:54:06;2.83;;;1.50;;
30533;SDS011;17318;52.390;9.754;2023-03-13T09:56:48;3.33;;;1.60;;
30533;SDS011;17318;52.390;9.754;2023-03-13T10:01:54;2.38;;;1.05;;
30533;SDS011;17318;52.390;9.754;2023-03-13T10:06:54;1.67;;;1.38;;
30533;SDS011;17318;52.390;9.754;2023-03-13T10:09:30;7.68;;;2.03;;
30533;SDS011;17318;52.390;9.754;2023-03-13T10:12:03;3.88;;;1.80;;
30533;SDS011;17318;52.390;9.754;2023-03-13T10:14:42;4.25;;;1.17;;
30533;SDS011;17318;52.390;9.754;2023-03-13T10:17:19;2.85;;;1.30;;
30533;SDS011;17318;52.390;9.754;2023-03-13T10:22:46;4.78;;;1.60;;
30533;SDS011;17318;52.390;9.754;2023-03-13T10:27:51;2.22;;;1.40;;
30533;SDS011;17318;52.390;9.754;2023-03-13T10:30:25;3.10;;;1.50;;
30533;SDS011;17318;52.390;9.754;2023-03-13T10:32:53;2.50;;;1.27;;
30533;SDS011;17318;52.390;9.754;2023-03-13T10:35:35;4.72;;;1.33;;
30533;SDS011;17318;52.390;9.754;2023-03-13T10:38:08;2.80;;;1.20;;
30533;SDS011;17318;52.390;9.754;2023-03-13T10:40:36;4.97;;;1.63;;
30533;SDS011;17318;52.390;9.754;2023-03-13T10:43:11;1.70;;;1.20;;
30533;SDS011;17318;52.390;9.754;2023-03-13T10:45:41;3.05;;;1.70;;
30533;SDS011;17318;52.390;9.754;2023-03-13T10:48:13;5.72;;;1.70;;
30533;SDS011;17318;52.390;9.754;2023-03-13T10:50:45;5.60;;;2.17;;
30533;SDS011;17318;52.390;9.754;2023-03-13T10:55:47;7.97;;;1.95;;
30533;SDS011;17318;52.390;9.754;2023-03-13T10:58:22;2.83;;;1.60;;
30533;SDS011;17318;52.390;9.754;2023-03-13T11:01:07;5.43;;;1.92;;
30533;SDS011;17318;52.390;9.754;2023-03-13T11:03:39;3.55;;;1.40;;
30533;SDS011;17318;52.390;9.754;2023-03-13T11:06:15;7.00;;;1.30;;
30533;SDS011;17318;52.390;9.754;2023-03-13T11:11:52;6.53;;;1.60;;
30533;SDS011;17318;52.390;9.754;2023-03-13T11:14:23;2.47;;;1.58;;
30533;SDS011;17318;52.390;9.754;2023-03-13T11:22:14;3.55;;;1.40;;
30533;SDS011;17318;52.390;9.754;2023-03-13T11:27:27;5.35;;;1.58;;
30533;SDS011;17318;52.390;9.754;2023-03-13T11:30:18;2.78;;;1.52;;
30533;SDS011;17318;52.390;9.754;2023-03-13T11:33:04;4.03;;;1.60;;
30533;SDS011;17318;52.390;9.754;2023-03-13T11:35:49;5.70;;;1.63;;
30533;SDS011;17318;52.390;9.754;2023-03-13T11:38:36;6.35;;;1.40;;
30533;SDS011;17318;52.390;9.754;2023-03-13T11:43:44;3.67;;;1.55;;
30533;SDS011;17318;52.390;9.754;2023-03-13T11:57:25;2.65;;;1.38;;
30533;SDS011;17318;52.390;9.754;2023-03-13T12:05:19;4.57;;;1.48;;
30533;SDS011;17318;52.390;9.754;2023-03-13T12:07:51;6.55;;;1.55;;
30533;SDS011;17318;52.390;9.754;2023-03-13T12:10:40;2.35;;;1.20;;
30533;SDS011;17318;52.390;9.754;2023-03-13T12:13:11;6.32;;;2.15;;
30533;SDS011;17318;52.390;9.754;2023-03-13T12:15:45;4.53;;;1.60;;
30533;SDS011;17318;52.390;9.754;2023-03-13T12:26:09;4.80;;;1.38;;
30533;SDS011;17318;52.390;9.754;2023-03-13T12:28:44;7.47;;;1.13;;
30533;SDS011;17318;52.390;9.754;2023-03-13T12:31:24;2.75;;;1.13;;
30533;SDS011;17318;52.390;9.754;2023-03-13T12:39:41;4.60;;;1.30;;
30533;SDS011;17318;52.390;9.754;2023-03-13T12:45:06;4.05;;;1.27;;
30533;SDS011;17318;52.390;9.754;2023-03-13T12:47:34;5.45;;;1.00;;
30533;SDS011;17318;52.390;9.754;2023-03-13T12:55:48;3.60;;;0.93;;
30533;SDS011;17318;52.390;9.754;2023-03-13T12:59:32;4.38;;;1.20;;
30533;SDS011;17318;52.390;9.754;2023-03-13T13:01:29;1.60;;;1.27;;
30533;SDS011;17318;52.390;9.754;2023-03-13T13:04:20;6.53;;;1.42;;
30533;SDS011;17318;52.390;9.754;2023-03-13T13:09:33;8.70;;;3.00;;
30533;SDS011;17318;52.390;9.754;2023-03-13T13:12:22;3.92;;;1.30;;
30533;SDS011;17318;52.390;9.754;2023-03-13T13:19:48;1.40;;;0.98;;
30533;SDS011;17318;52.390;9.754;2023-03-13T13:27:55;3.28;;;1.00;;
30533;SDS011;17318;52.390;9.754;2023-03-13T13:30:34;35.15;;;19.27;;
30533;SDS011;17318;52.390;9.754;2023-03-13T13:38:42;4.55;;;1.00;;
30533;SDS011;17318;52.390;9.754;2023-03-13T13:43:35;2.55;;;0.70;;
30533;SDS011;17318;52.390;9.754;2023-03-13T13:46:04;6.32;;;0.80;;
30533;SDS011;17318;52.390;9.754;2023-03-13T13:48:43;1.75;;;0.70;;
30533;SDS011;17318;52.390;9.754;2023-03-13T13:59:27;3.60;;;0.85;;
30533;SDS011;17318;52.390;9.754;2023-03-13T14:04:40;0.95;;;0.50;;
30533;SDS011;17318;52.390;9.754;2023-03-13T14:07:11;2.15;;;1.13;;
30533;SDS011;17318;52.390;9.754;2023-03-13T14:12:31;1.30;;;0.70;;
30533;SDS011;17318;52.390;9.754;2023-03-13T14:15:15;5.10;;;1.17;;
30533;SDS011;17318;52.390;9.754;2023-03-13T14:17:47;5.65;;;0.82;;
30533;SDS011;17318;52.390;9.754;2023-03-13T14:22:45;2.35;;;0.80;;
30533;SDS011;17318;52.390;9.754;2023-03-13T14:25:11;1.65;;;0.80;;
30533;SDS011;17318;52.390;9.754;2023-03-13T14:27:41;1.75;;;0.68;;
30533;SDS011;17318;52.390;9.754;2023-03-13T14:30:08;0.65;;;0.55;;
30533;SDS011;17318;52.390;9.754;2023-03-13T14:32:36;1.03;;;0.53;;
30533;SDS011;17318;52.390;9.754;2023-03-13T14:35:06;0.93;;;0.50;;
30533;SDS011;17318;52.390;9.754;2023-03-13T14:37:37;3.40;;;0.40;;
30533;SDS011;17318;52.390;9.754;2023-03-13T14:40:07;0.95;;;0.70;;
30533;SDS011;17318;52.390;9.754;2023-03-13T14:42:47;3.30;;;0.73;;
30533;SDS011;17318;52.390;9.754;2023-03-13T14:45:19;1.70;;;0.70;;
30533;SDS011;17318;52.390;9.754;2023-03-13T14:48:03;1.90;;;0.68;;
30533;SDS011;17318;52.390;9.754;2023-03-13T14:50:53;1.92;;;0.85;;
30533;SDS011;17318;52.390;9.754;2023-03-13T14:53:26;2.53;;;0.55;;
30533;SDS011;17318;52.390;9.754;2023-03-13T14:56:08;3.42;;;0.75;;
30533;SDS011;17318;52.390;9.754;2023-03-13T14:58:36;1.65;;;0.60;;
30533;SDS011;17318;52.390;9.754;2023-03-13T15:03:52;2.25;;;0.50;;
30533;SDS011;17318;52.390;9.754;2023-03-13T15:06:18;5.47;;;2.33;;
30533;SDS011;17318;52.390;9.754;2023-03-13T15:09:06;2.38;;;0.70;;
30533;SDS011;17318;52.390;9.754;2023-03-13T15:11:35;3.13;;;1.10;;
30533;SDS011;17318;52.390;9.754;2023-03-13T15:14:28;3.42;;;0.95;;
30533;SDS011;17318;52.390;9.754;2023-03-13T15:16:56;1.95;;;0.47;;
30533;SDS011;17318;52.390;9.754;2023-03-13T15:19:21;5.88;;;0.73;;
30533;SDS011;17318;52.390;9.754;2023-03-13T15:21:49;0.52;;;0.38;;
30533;SDS011;17318;52.390;9.754;2023-03-13T15:24:15;3.72;;;0.65;;
30533;SDS011;17318;52.390;9.754;2023-03-13T15:26:41;1.55;;;1.00;;
30533;SDS011;17318;52.390;9.754;2023-03-13T15:29:08;1.58;;;1.13;;
30533;SDS011;17318;52.390;9.754;2023-03-13T15:31:35;1.98;;;1.00;;
30533;SDS011;17318;52.390;9.754;2023-03-13T15:34:02;2.55;;;1.58;;
30533;SDS011;17318;52.390;9.754;2023-03-13T15:36:28;1.95;;;1.10;;
30533;SDS011;17318;52.390;9.754;2023-03-13T15:38:55;2.80;;;0.70;;
30533;SDS011;17318;52.390;9.754;2023-03-13T15:41:21;0.93;;;0.63;;
30533;SDS011;17318;52.390;9.754;2023-03-13T15:43:48;3.92;;;1.02;;
30533;SDS011;17318;52.390;9.754;2023-03-13T15:46:19;24.10;;;13.65;;
30533;SDS011;17318;52.390;9.754;2023-03-13T15:48:45;3.70;;;1.27;;
30533;SDS011;17318;52.390;9.754;2023-03-13T15:51:11;2.67;;;0.73;;
30533;SDS011;17318;52.390;9.754;2023-03-13T15:53:38;2.10;;;0.60;;
30533;SDS011;17318;52.390;9.754;2023-03-13T15:56:10;2.47;;;0.60;;
30533;SDS011;17318;52.390;9.754;2023-03-13T15:58:38;2.55;;;0.82;;
30533;SDS011;17318;52.390;9.754;2023-03-13T16:01:04;2.05;;;0.80;;
30533;SDS011;17318;52.390;9.754;2023-03-13T16:03:30;3.58;;;0.80;;
30533;SDS011;17318;52.390;9.754;2023-03-13T16:05:56;1.90;;;0.60;;
30533;SDS011;17318;52.390;9.754;2023-03-13T16:08:26;1.95;;;0.63;;
30533;SDS011;17318;52.390;9.754;2023-03-13T16:10:53;1.95;;;1.00;;
30533;SDS011;17318;52.390;9.754;2023-03-13T16:13:19;2.70;;;0.70;;
30533;SDS011;17318;52.390;9.754;2023-03-13T16:15:45;1.13;;;0.63;;
30533;SDS011;17318;52.390;9.754;2023-03-13T16:18:18;3.00;;;0.70;;
30533;SDS011;17318;52.390;9.754;2023-03-13T16:20:45;2.47;;;0.65;;
30533;SDS011;17318;52.390;9.754;2023-03-13T16:23:11;1.15;;;0.70;;
30533;SDS011;17318;52.390;9.754;2023-03-13T16:25:37;3.97;;;1.45;;
30533;SDS011;17318;52.390;9.754;2023-03-13T16:28:03;2.45;;;0.70;;
30533;SDS011;17318;52.390;9.754;2023-03-13T16:30:32;2.05;;;1.02;;
30533;SDS011;17318;52.390;9.754;2023-03-13T16:32:58;2.73;;;1.00;;
30533;SDS011;17318;52.390;9.754;2023-03-13T16:35:25;3.58;;;0.93;;
30533;SDS011;17318;52.390;9.754;2023-03-13T16:37:52;2.80;;;1.23;;
30533;SDS011;17318;52.390;9.754;2023-03-13T16:40:21;1.70;;;1.08;;
30533;SDS011;17318;52.390;9.754;2023-03-13T16:42:48;6.15;;;1.13;;
30533;SDS011;17318;52.390;9.754;2023-03-13T16:45:14;3.95;;;1.00;;